Time;durP1;ratioP1;P1;durP2;ratioP2;P2;SDS_P1;SDS_P2;PMS_P1;PMS_P2;Temp;Humidity;BMP_temperature;BMP_pressure;BME280_temperature;BME280_humidity;BME280_pressure;Samples;Min_cycle;Max_cycle;Signal;HPM_P1;HPM_P2
2023/12/14 00:00:53;;;;;;;30.17;18.37;;;5.40;99.90;;;;;;5057282;28;20558;-91
2023/12/14 00:03:20;;;;;;;25.03;18.23;;;5.30;99.90;;;;;;5057889;28;20209;-90
2023/12/14 00:05:47;;;;;;;25.90;18.60;;;5.30;99.90;;;;;;5041848;28;20259;-91
2023/12/14 00:08:13;;;;;;;24.13;19.00;;;5.30;99.90;;;;;;5057058;28;20201;-90
2023/12/14 00:10:40;;;;;;;26.00;19.07;;;5.40;99.90;;;;;;5056481;28;20202;-91
2023/12/14 00:13:07;;;;;;;26.47;19.67;;;5.40;99.90;;;;;;5057319;28;20231;-90
2023/12/14 00:15:36;;;;;;;26.53;19.77;;;5.40;99.90;;;;;;5036010;28;20226;-91
2023/12/14 00:18:02;;;;;;;30.47;20.43;;;5.40;99.90;;;;;;5044827;28;20202;-91
2023/12/14 00:20:29;;;;;;;28.17;19.70;;;5.40;99.90;;;;;;5042014;28;20209;-91
2023/12/14 00:22:56;;;;;;;26.37;19.97;;;5.50;99.90;;;;;;5036544;28;20198;-92
2023/12/14 00:25:23;;;;;;;24.93;19.03;;;5.50;99.90;;;;;;5036493;28;20290;-91
2023/12/14 00:27:50;;;;;;;32.53;19.53;;;5.60;99.90;;;;;;5036982;28;20201;-91
2023/12/14 00:30:17;;;;;;;29.37;20.73;;;5.60;99.90;;;;;;5037123;28;20199;-92
2023/12/14 00:32:45;;;;;;;30.00;20.43;;;5.60;99.90;;;;;;5036219;28;20210;-92
2023/12/14 00:35:13;;;;;;;27.23;19.67;;;5.60;99.90;;;;;;5036453;28;20665;-92
2023/12/14 00:37:39;;;;;;;29.13;20.50;;;5.60;99.90;;;;;;5036159;28;20210;-92
2023/12/14 00:40:07;;;;;;;26.93;20.40;;;5.60;99.90;;;;;;5036144;28;20205;-92
2023/12/14 00:42:34;;;;;;;31.47;20.97;;;5.50;99.90;;;;;;5036273;28;20223;-92
2023/12/14 00:45:02;;;;;;;29.77;20.50;;;5.50;99.90;;;;;;5034843;28;20281;-92
2023/12/14 00:47:28;;;;;;;31.13;21.83;;;5.50;99.90;;;;;;5038878;28;20270;-92
2023/12/14 00:49:56;;;;;;;33.33;21.77;;;5.50;99.90;;;;;;5041080;28;20205;-91
2023/12/14 00:52:23;;;;;;;32.57;22.20;;;5.50;99.90;;;;;;5040364;28;20248;-92
2023/12/14 00:54:50;;;;;;;29.50;21.40;;;5.50;99.90;;;;;;5041017;28;20198;-93
2023/12/14 00:57:17;;;;;;;34.03;22.50;;;5.50;99.90;;;;;;5040380;28;20596;-92
2023/12/14 00:59:44;;;;;;;32.27;22.23;;;5.50;99.90;;;;;;5041068;28;20206;-92
2023/12/14 01:02:11;;;;;;;31.90;21.53;;;5.50;99.90;;;;;;5040104;28;20230;-93
2023/12/14 01:04:39;;;;;;;34.20;23.13;;;5.50;99.90;;;;;;5040216;28;20202;-93
2023/12/14 01:07:07;;;;;;;31.53;21.87;;;5.50;99.90;;;;;;5039969;28;20202;-93
2023/12/14 01:09:34;;;;;;;35.80;22.80;;;5.50;99.90;;;;;;5039490;28;20199;-93
2023/12/14 01:12:01;;;;;;;34.47;22.60;;;5.50;99.90;;;;;;5040417;28;20209;-94
2023/12/14 01:14:28;;;;;;;34.57;21.60;;;5.50;99.90;;;;;;5039849;28;20202;-92
2023/12/14 01:19:36;;;;;;;35.27;21.80;;;5.60;99.90;;;;;;5060171;28;20248;-92
2023/12/14 01:22:04;;;;;;;34.67;23.67;;;5.60;99.90;;;;;;5059131;28;20225;-94
2023/12/14 01:24:33;;;;;;;34.40;22.17;;;5.60;99.90;;;;;;5062571;28;20224;-93
2023/12/14 01:27:00;;;;;;;32.47;22.23;;;5.60;99.90;;;;;;5069288;28;20194;-93
2023/12/14 01:29:27;;;;;;;37.97;23.67;;;5.60;99.90;;;;;;5057078;28;20205;-93
2023/12/14 01:31:54;;;;;;;42.43;24.23;;;5.60;99.90;;;;;;5066555;28;20202;-93
2023/12/14 01:34:21;;;;;;;37.00;23.23;;;5.50;99.90;;;;;;5059669;28;20209;-92
2023/12/14 01:36:48;;;;;;;38.57;22.33;;;5.50;99.90;;;;;;5059899;28;20201;-91
2023/12/14 01:39:15;;;;;;;35.47;22.73;;;5.50;99.90;;;;;;5059202;28;20206;-93
2023/12/14 01:44:56;;;;;;;37.33;23.53;;;5.50;99.90;;;;;;5064246;28;20220;-96
2023/12/14 01:47:23;;;;;;;34.57;23.47;;;5.50;99.90;;;;;;5064396;28;20577;-95
2023/12/14 01:49:51;;;;;;;35.63;22.53;;;5.50;99.90;;;;;;5059327;28;20198;-93
2023/12/14 01:52:18;;;;;;;35.27;23.53;;;5.50;99.90;;;;;;5063217;28;20213;-95
2023/12/14 01:54:47;;;;;;;36.47;23.43;;;5.50;99.90;;;;;;5042996;28;20200;-94
2023/12/14 01:57:14;;;;;;;32.90;23.10;;;5.40;99.90;;;;;;5059698;28;20231;-94
2023/12/14 01:59:42;;;;;;;41.03;24.00;;;5.40;99.90;;;;;;5060579;28;20205;-94
2023/12/14 02:02:17;;;;;;;36.90;23.10;;;5.50;99.90;;;;;;5060274;28;20226;-94
2023/12/14 02:04:45;;;;;;;34.83;23.80;;;5.50;99.90;;;;;;5062472;28;20244;-93
2023/12/14 02:07:12;;;;;;;37.27;24.17;;;5.40;99.90;;;;;;5080200;28;20192;-93
2023/12/14 02:09:39;;;;;;;42.00;24.73;;;5.50;99.90;;;;;;5076328;28;20202;-93
2023/12/14 02:12:07;;;;;;;39.33;23.33;;;5.50;99.90;;;;;;5054962;28;20224;-89
2023/12/14 02:14:34;;;;;;;34.47;22.43;;;5.50;99.90;;;;;;5054554;28;20206;-91
2023/12/14 02:17:01;;;;;;;37.47;21.67;;;5.50;99.90;;;;;;5057696;28;20225;-90
2023/12/14 02:19:29;;;;;;;41.13;22.83;;;5.60;99.90;;;;;;5058099;28;20251;-90
2023/12/14 02:21:56;;;;;;;39.93;21.93;;;5.60;99.90;;;;;;5062623;28;20290;-90
2023/12/14 02:24:24;;;;;;;40.77;22.50;;;5.70;99.90;;;;;;5059170;28;20207;-90
2023/12/14 02:26:51;;;;;;;43.47;23.40;;;5.60;99.90;;;;;;5058052;28;20201;-89
2023/12/14 02:29:17;;;;;;;40.50;22.10;;;5.70;99.90;;;;;;5058259;28;20610;-90
2023/12/14 02:31:44;;;;;;;39.10;22.00;;;5.70;99.90;;;;;;5057722;28;20206;-91
2023/12/14 02:34:11;;;;;;;39.27;21.87;;;5.60;99.90;;;;;;5076194;28;20211;-89
2023/12/14 02:36:38;;;;;;;42.57;22.23;;;5.70;99.90;;;;;;5061985;28;20183;-88
2023/12/14 02:39:04;;;;;;;39.00;22.30;;;5.70;99.90;;;;;;5078224;28;20232;-88
2023/12/14 02:41:33;;;;;;;37.00;21.57;;;5.60;99.90;;;;;;5077558;28;20236;-88
2023/12/14 02:43:59;;;;;;;36.10;21.50;;;5.60;99.90;;;;;;5076834;28;20231;-86
2023/12/14 02:46:26;;;;;;;36.73;21.73;;;5.60;99.90;;;;;;5076970;28;20213;-89
2023/12/14 02:48:53;;;;;;;37.90;20.87;;;5.60;99.90;;;;;;5057706;28;20217;-88
2023/12/14 02:51:19;;;;;;;38.90;20.63;;;5.60;99.90;;;;;;5071472;28;20201;-88
2023/12/14 02:53:46;;;;;;;33.53;20.60;;;5.60;99.90;;;;;;5071088;28;20228;-87
2023/12/14 02:56:13;;;;;;;32.87;20.17;;;5.60;99.90;;;;;;5062668;28;20198;-87
2023/12/14 02:58:41;;;;;;;33.50;19.77;;;5.60;99.90;;;;;;5067573;28;20229;-89
2023/12/14 03:01:08;;;;;;;34.07;20.60;;;5.60;99.90;;;;;;5059178;28;20193;-86
2023/12/14 03:03:34;;;;;;;36.40;21.37;;;5.60;99.90;;;;;;5070985;28;20229;-85
2023/12/14 03:06:01;;;;;;;32.03;19.37;;;5.60;99.90;;;;;;5062995;28;20645;-86
2023/12/14 03:08:28;;;;;;;36.77;21.03;;;5.60;99.90;;;;;;5068018;28;20201;-86
2023/12/14 03:10:54;;;;;;;31.93;19.27;;;5.60;99.90;;;;;;5061855;28;20202;-88
2023/12/14 03:13:21;;;;;;;41.83;20.97;;;5.50;99.90;;;;;;5068476;28;20194;-89
2023/12/14 03:15:50;;;;;;;33.93;19.27;;;5.50;99.90;;;;;;5076107;28;20221;-88
2023/12/14 03:18:16;;;;;;;35.67;20.27;;;5.50;99.90;;;;;;5074668;28;20193;-87
2023/12/14 03:20:43;;;;;;;38.27;21.23;;;5.50;99.90;;;;;;5057882;28;20197;-88
2023/12/14 03:23:10;;;;;;;39.90;20.93;;;5.50;99.90;;;;;;5038734;28;20229;-87
2023/12/14 03:25:36;;;;;;;36.10;20.37;;;5.50;99.90;;;;;;5055616;28;20236;-88
2023/12/14 03:28:03;;;;;;;39.97;21.27;;;5.40;99.90;;;;;;5055973;28;20205;-88
2023/12/14 03:30:30;;;;;;;36.80;20.37;;;5.40;99.90;;;;;;5056040;28;20202;-87
2023/12/14 03:32:58;;;;;;;35.97;20.30;;;5.40;99.90;;;;;;5055536;28;20204;-87
2023/12/14 03:35:25;;;;;;;40.23;22.93;;;5.40;99.90;;;;;;5055400;28;20260;-88
2023/12/14 03:37:52;;;;;;;37.07;21.70;;;5.40;99.90;;;;;;5055887;28;20208;-88
2023/12/14 03:40:18;;;;;;;37.20;22.53;;;5.30;99.90;;;;;;5056352;28;20206;-88
2023/12/14 03:42:45;;;;;;;43.50;22.40;;;5.40;99.90;;;;;;5055622;28;20228;-88
2023/12/14 03:45:12;;;;;;;39.50;21.57;;;5.40;99.90;;;;;;5055718;28;20205;-88
2023/12/14 03:47:39;;;;;;;43.23;23.03;;;5.40;99.90;;;;;;5055481;28;20198;-88
2023/12/14 03:50:11;;;;;;;38.37;21.70;;;5.30;99.90;;;;;;5055908;28;20595;-88
2023/12/14 03:52:38;;;;;;;37.07;22.17;;;5.30;99.90;;;;;;5055465;28;20198;-88
2023/12/14 03:55:05;;;;;;;40.23;21.87;;;5.40;99.90;;;;;;5055360;28;20205;-88
2023/12/14 03:57:32;;;;;;;42.27;22.83;;;5.40;99.90;;;;;;5054794;28;20193;-87
2023/12/14 03:59:59;;;;;;;41.07;23.03;;;5.40;99.90;;;;;;5055388;28;20197;-87
2023/12/14 04:02:25;;;;;;;45.60;23.17;;;5.40;99.90;;;;;;5055221;28;20225;-86
2023/12/14 04:04:52;;;;;;;40.57;22.57;;;5.40;99.90;;;;;;5055312;28;20519;-87
2023/12/14 04:07:21;;;;;;;46.70;23.40;;;5.30;99.90;;;;;;5054807;28;20201;-86
2023/12/14 04:09:48;;;;;;;43.33;23.33;;;5.30;99.90;;;;;;5036952;28;20553;-86
2023/12/14 04:12:17;;;;;;;41.77;23.70;;;5.30;99.90;;;;;;5055214;28;20233;-86
2023/12/14 04:14:44;;;;;;;40.33;22.73;;;5.30;99.90;;;;;;5056726;28;20204;-85
2023/12/14 04:17:11;;;;;;;46.00;24.67;;;5.30;99.90;;;;;;5045877;28;20263;-86
2023/12/14 04:19:39;;;;;;;44.33;24.10;;;5.30;99.90;;;;;;5038372;28;20204;-85
2023/12/14 04:22:06;;;;;;;44.97;22.77;;;5.30;99.90;;;;;;5059813;28;20639;-85
2023/12/14 04:24:34;;;;;;;50.53;24.87;;;5.20;99.90;;;;;;5040041;28;20205;-84
2023/12/14 04:27:01;;;;;;;48.40;25.10;;;5.20;99.90;;;;;;5057357;28;20201;-85
2023/12/14 04:29:27;;;;;;;49.60;24.57;;;5.20;99.90;;;;;;5057483;28;20243;-85
2023/12/14 04:31:54;;;;;;;49.33;25.57;;;5.20;99.90;;;;;;5057459;28;20205;-85
2023/12/14 04:34:21;;;;;;;52.60;25.73;;;5.10;99.90;;;;;;5057052;28;20649;-85
2023/12/14 04:36:48;;;;;;;46.03;24.47;;;5.00;99.90;;;;;;5057469;28;20205;-84
2023/12/14 04:39:16;;;;;;;49.93;25.93;;;5.00;99.90;;;;;;5057333;28;20619;-84
2023/12/14 04:41:44;;;;;;;50.43;24.90;;;5.00;99.90;;;;;;5056846;28;20202;-84
2023/12/14 04:44:11;;;;;;;45.37;24.87;;;5.00;99.90;;;;;;5056674;28;20267;-84
2023/12/14 04:46:38;;;;;;;49.67;25.27;;;5.00;99.90;;;;;;5056730;28;20197;-83
2023/12/14 04:49:05;;;;;;;49.13;24.03;;;5.10;99.90;;;;;;5056608;28;20279;-82
2023/12/14 04:51:31;;;;;;;52.70;25.83;;;5.10;99.90;;;;;;5056545;28;20255;-82
2023/12/14 04:53:58;;;;;;;49.73;25.17;;;5.20;99.90;;;;;;5056528;28;20206;-82
2023/12/14 04:56:25;;;;;;;46.87;24.47;;;5.20;99.90;;;;;;5056018;28;20213;-82
2023/12/14 04:58:53;;;;;;;48.13;24.47;;;5.20;99.90;;;;;;5056414;28;20328;-81
2023/12/14 05:01:19;;;;;;;52.23;25.60;;;5.20;99.90;;;;;;5056204;28;20229;-81
2023/12/14 05:03:46;;;;;;;55.03;26.37;;;5.10;99.90;;;;;;5056083;28;20229;-81
2023/12/14 05:06:13;;;;;;;55.70;25.90;;;5.10;99.90;;;;;;5056160;28;20201;-81
2023/12/14 05:08:40;;;;;;;56.03;25.80;;;5.10;99.90;;;;;;5056033;28;20198;-82
2023/12/14 05:11:06;;;;;;;57.40;25.57;;;5.10;99.90;;;;;;5055718;28;20649;-81
2023/12/14 05:13:33;;;;;;;57.83;27.10;;;5.10;99.90;;;;;;5055879;28;20201;-81
2023/12/14 05:16:01;;;;;;;54.07;26.03;;;5.20;99.90;;;;;;5055691;28;20283;-81
2023/12/14 05:18:28;;;;;;;49.03;25.03;;;5.10;99.90;;;;;;5055626;28;20708;-81
2023/12/14 05:20:55;;;;;;;51.30;26.10;;;5.10;99.90;;;;;;5040092;28;20608;-83
2023/12/14 05:23:21;;;;;;;50.43;26.47;;;5.20;99.90;;;;;;5038156;28;20229;-89
2023/12/14 05:25:48;;;;;;;52.10;26.17;;;5.20;99.90;;;;;;5040877;28;20205;-88
2023/12/14 05:28:15;;;;;;;47.13;24.97;;;5.20;99.90;;;;;;5040715;28;20280;-88
2023/12/14 05:30:41;;;;;;;47.93;25.03;;;5.20;99.90;;;;;;5046484;28;20201;-87
2023/12/14 05:33:09;;;;;;;54.37;26.63;;;5.20;99.90;;;;;;5044708;28;20221;-87
2023/12/14 05:35:36;;;;;;;52.10;24.97;;;5.20;99.90;;;;;;5041922;28;20202;-87
2023/12/14 05:38:03;;;;;;;51.00;25.07;;;5.10;99.90;;;;;;5039661;28;20203;-87
2023/12/14 05:40:30;;;;;;;49.80;24.67;;;5.00;99.90;;;;;;5037685;28;20658;-87
2023/12/14 05:42:56;;;;;;;48.83;24.93;;;4.90;99.90;;;;;;5037051;28;20212;-88
2023/12/14 05:45:23;;;;;;;42.80;23.57;;;4.90;99.90;;;;;;5037764;28;20206;-88
2023/12/14 05:47:51;;;;;;;51.47;24.40;;;4.80;99.90;;;;;;5037473;28;20237;-87
2023/12/14 05:50:19;;;;;;;48.43;24.30;;;4.70;99.90;;;;;;5037255;28;20201;-86
2023/12/14 05:52:46;;;;;;;46.30;24.27;;;4.70;99.90;;;;;;5037504;28;20264;-87
2023/12/14 05:55:12;;;;;;;49.30;24.37;;;4.80;99.90;;;;;;5037314;28;20206;-87
2023/12/14 05:57:39;;;;;;;46.43;23.63;;;4.90;99.90;;;;;;5038290;28;20209;-88
2023/12/14 06:00:08;;;;;;;50.47;25.00;;;4.90;99.90;;;;;;5051186;28;20190;-90
2023/12/14 06:02:36;;;;;;;48.57;24.77;;;5.00;99.90;;;;;;5054995;28;20217;-88
2023/12/14 06:05:03;;;;;;;47.17;22.17;;;4.90;99.90;;;;;;5042506;28;20293;-88
2023/12/14 06:07:32;;;;;;;48.77;25.40;;;4.90;99.90;;;;;;5037197;28;20264;-86
2023/12/14 06:09:59;;;;;;;52.63;25.23;;;4.90;99.90;;;;;;5035948;28;20205;-86
2023/12/14 06:12:26;;;;;;;52.10;23.10;;;4.80;99.90;;;;;;5035422;28;20252;-86
2023/12/14 06:14:52;;;;;;;42.87;22.80;;;4.70;99.90;;;;;;5037343;28;20665;-87
2023/12/14 06:17:19;;;;;;;47.60;21.67;;;4.70;99.90;;;;;;5037705;28;20268;-86
2023/12/14 06:19:46;;;;;;;44.23;24.13;;;4.70;99.90;;;;;;5036544;28;20562;-87
2023/12/14 06:22:13;;;;;;;38.80;21.53;;;4.70;99.90;;;;;;5019040;28;20205;-88
2023/12/14 06:24:42;;;;;;;63.37;41.37;;;4.70;99.90;;;;;;5037345;28;20224;-88
2023/12/14 06:27:08;;;;;;;53.00;27.87;;;4.70;99.90;;;;;;5037726;28;20205;-88
2023/12/14 06:29:35;;;;;;;43.13;24.43;;;4.60;99.90;;;;;;5036693;28;20214;-88
2023/12/14 06:32:02;;;;;;;42.47;23.90;;;4.60;99.90;;;;;;5036236;28;20825;-88
2023/12/14 06:34:28;;;;;;;43.23;24.13;;;4.60;99.90;;;;;;5037490;28;20209;-89
2023/12/14 06:36:57;;;;;;;44.03;21.57;;;4.60;99.90;;;;;;5037789;28;20209;-88
2023/12/14 06:39:24;;;;;;;44.60;23.03;;;4.60;99.90;;;;;;5037679;28;20281;-90
2023/12/14 06:41:55;;;;;;;42.93;22.70;;;4.60;99.90;;;;;;5038649;28;20205;-91
2023/12/14 06:44:21;;;;;;;45.53;23.63;;;4.60;99.90;;;;;;5048384;28;20223;-91
2023/12/14 06:46:48;;;;;;;49.50;23.80;;;4.50;99.90;;;;;;5057009;28;20196;-90
2023/12/14 06:49:14;;;;;;;46.77;23.37;;;4.50;99.90;;;;;;5053375;28;20325;-89
2023/12/14 06:51:41;;;;;;;47.50;24.17;;;4.50;99.90;;;;;;5040870;28;20276;-86
2023/12/14 06:54:08;;;;;;;46.10;24.80;;;4.50;99.90;;;;;;5049949;28;20599;-87
2023/12/14 06:56:37;;;;;;;48.23;24.77;;;4.40;99.90;;;;;;5056719;28;20213;-87
2023/12/14 06:59:08;;;;;;;45.90;23.97;;;4.40;99.90;;;;;;5057082;28;20204;-89
2023/12/14 07:01:35;;;;;;;56.60;26.20;;;4.40;99.90;;;;;;5042068;28;20198;-87
2023/12/14 07:04:03;;;;;;;51.73;24.27;;;4.40;99.90;;;;;;5035785;28;20242;-87
2023/12/14 07:06:29;;;;;;;53.67;24.07;;;4.40;99.90;;;;;;5055203;28;20246;-88
2023/12/14 07:08:56;;;;;;;49.17;23.77;;;4.40;99.90;;;;;;5055145;28;20209;-87
2023/12/14 07:11:23;;;;;;;47.07;23.77;;;4.40;99.90;;;;;;5056411;28;20232;-89
2023/12/14 07:13:49;;;;;;;46.47;24.40;;;4.40;99.90;;;;;;5056737;28;20201;-87
2023/12/14 07:16:18;;;;;;;50.33;23.67;;;4.40;99.90;;;;;;5057004;28;20228;-88
2023/12/14 07:18:45;;;;;;;50.90;24.63;;;4.40;99.90;;;;;;5046076;28;20216;-86
2023/12/14 07:21:12;;;;;;;54.33;25.00;;;4.50;99.90;;;;;;5060746;28;20202;-88
2023/12/14 07:23:39;;;;;;;54.20;24.83;;;4.50;99.90;;;;;;5056567;28;20217;-88
2023/12/14 07:26:06;;;;;;;54.30;26.20;;;4.50;99.90;;;;;;5056935;28;20438;-89
2023/12/14 07:28:32;;;;;;;47.83;23.93;;;4.50;99.90;;;;;;5039322;28;20279;-88
2023/12/14 07:30:59;;;;;;;49.03;25.87;;;4.50;99.90;;;;;;5056824;28;20202;-89
2023/12/14 07:33:27;;;;;;;47.03;23.30;;;4.50;99.90;;;;;;5056246;28;20675;-89
2023/12/14 07:35:54;;;;;;;49.97;24.77;;;4.50;99.90;;;;;;5039726;28;20205;-89
2023/12/14 07:38:21;;;;;;;44.93;24.20;;;4.50;99.90;;;;;;5056543;28;20576;-88
2023/12/14 07:40:49;;;;;;;53.80;24.80;;;4.50;99.90;;;;;;5057280;28;20254;-88
2023/12/14 07:43:16;;;;;;;48.53;24.87;;;4.50;99.90;;;;;;5056462;28;20229;-88
2023/12/14 07:45:44;;;;;;;47.67;24.17;;;4.50;99.90;;;;;;5053672;28;20200;-91
2023/12/14 07:48:12;;;;;;;49.63;25.13;;;4.50;99.90;;;;;;5033088;28;20247;-94
2023/12/14 07:50:45;;;;;;;57.10;26.73;;;4.50;99.90;;;;;;5039183;28;20197;-93
2023/12/14 07:53:13;;;;;;;48.80;25.13;;;4.50;99.90;;;;;;5040336;28;20205;-92
2023/12/14 07:55:40;;;;;;;50.73;26.20;;;4.50;99.90;;;;;;5048976;28;20202;-92
2023/12/14 07:58:07;;;;;;;52.53;24.97;;;4.40;99.90;;;;;;5050479;28;20202;-93
2023/12/14 08:00:34;;;;;;;49.97;24.17;;;4.40;99.90;;;;;;5052698;28;20232;-92
2023/12/14 08:03:01;;;;;;;43.17;23.10;;;4.40;99.90;;;;;;5041994;28;20704;-93
2023/12/14 08:05:28;;;;;;;43.87;23.43;;;4.30;99.90;;;;;;5050121;28;20216;-95
2023/12/14 08:07:56;;;;;;;46.67;23.77;;;4.30;99.90;;;;;;5025165;28;20274;-81
2023/12/14 08:41:48;;;;;;;51.30;24.67;;;5.00;99.90;;;;;;5450705;23;20235;-96
2023/12/14 08:44:25;;;;;;;48.60;24.40;;;5.00;99.90;;;;;;4965155;28;20321;-96
2023/12/14 08:46:52;;;;;;;43.03;22.53;;;5.10;99.90;;;;;;4961403;28;20299;-96
2023/12/14 08:49:23;;;;;;;46.03;24.37;;;5.20;99.90;;;;;;4961230;29;20201;-95
2023/12/14 08:51:55;;;;;;;45.37;22.73;;;5.20;99.90;;;;;;4960384;28;20237;-94
2023/12/14 08:54:23;;;;;;;50.67;24.50;;;5.30;99.90;;;;;;4960177;29;20209;-93
2023/12/14 08:56:52;;;;;;;40.80;21.40;;;5.30;99.90;;;;;;4971630;28;20211;-93
2023/12/14 08:59:20;;;;;;;42.03;21.57;;;5.30;99.90;;;;;;4966051;28;20235;-92
2023/12/14 09:01:47;;;;;;;45.30;22.47;;;5.40;99.90;;;;;;4961027;29;20292;-91
2023/12/14 09:04:14;;;;;;;45.20;22.20;;;5.40;99.90;;;;;;4965860;29;20224;-90
2023/12/14 09:06:44;;;;;;;45.70;23.47;;;5.40;99.90;;;;;;4956285;28;20197;-89
2023/12/14 09:09:11;;;;;;;45.87;22.87;;;5.50;99.90;;;;;;4960550;28;20232;-89
2023/12/14 09:11:38;;;;;;;41.03;21.17;;;5.50;99.90;;;;;;4961344;28;20261;-88
2023/12/14 09:14:06;;;;;;;38.93;20.83;;;5.50;99.90;;;;;;4960802;29;20217;-87
2023/12/14 09:16:33;;;;;;;42.17;22.13;;;5.50;99.90;;;;;;4960607;29;20216;-88
2023/12/14 09:18:59;;;;;;;43.73;21.20;;;5.60;99.90;;;;;;4963809;29;20201;-88
2023/12/14 09:21:26;;;;;;;44.67;21.10;;;5.70;99.90;;;;;;4963118;29;20300;-86
2023/12/14 09:23:53;;;;;;;37.90;20.97;;;5.80;99.90;;;;;;4961566;29;20253;-84
2023/12/14 09:26:20;;;;;;;40.47;20.43;;;5.90;99.90;;;;;;4959064;29;20229;-86
2023/12/14 09:28:47;;;;;;;38.33;20.33;;;6.00;99.90;;;;;;4959437;28;20211;-84
2023/12/14 09:31:15;;;;;;;34.60;20.50;;;5.90;99.90;;;;;;4957867;29;20327;-82
2023/12/14 09:33:42;;;;;;;36.53;20.13;;;6.10;99.90;;;;;;4958660;29;20288;-84
2023/12/14 09:36:09;;;;;;;38.07;20.87;;;6.30;99.90;;;;;;4958462;29;20720;-82
2023/12/14 09:38:37;;;;;;;29.60;19.33;;;6.30;99.90;;;;;;4957694;29;20265;-83
2023/12/14 09:41:04;;;;;;;30.20;18.67;;;6.40;99.90;;;;;;4958008;29;20228;-84
2023/12/14 09:43:31;;;;;;;28.30;17.57;;;6.70;99.90;;;;;;4955675;29;20201;-82
2023/12/14 09:45:58;;;;;;;28.40;16.90;;;6.80;99.90;;;;;;4956959;29;20193;-82
2023/12/14 09:48:27;;;;;;;26.13;15.90;;;6.90;99.90;;;;;;4956366;28;20220;-82
2023/12/14 09:50:53;;;;;;;32.87;17.47;;;7.00;99.90;;;;;;4984340;28;20200;-80
2023/12/14 09:53:20;;;;;;;22.90;16.47;;;7.30;99.90;;;;;;4994053;28;20201;-81
2023/12/14 09:55:47;;;;;;;23.20;14.70;;;7.60;99.90;;;;;;4977956;29;20234;-83
2023/12/14 09:58:13;;;;;;;21.20;14.43;;;7.40;99.90;;;;;;4976323;28;20197;-83
2023/12/14 10:00:41;;;;;;;21.97;14.10;;;7.50;99.90;;;;;;4993271;28;20205;-83
2023/12/14 10:03:22;;;;;;;23.77;15.77;;;7.60;99.90;;;;;;4982913;28;20185;-81
2023/12/14 10:05:51;;;;;;;22.43;14.27;;;7.60;99.90;;;;;;4963758;29;20633;-79
2023/12/14 10:08:18;;;;;;;22.23;14.30;;;7.70;99.90;;;;;;4968846;29;20262;-78
2023/12/14 10:10:51;;;;;;;19.33;13.73;;;7.70;99.90;;;;;;4968770;29;20209;-80
2023/12/14 10:13:17;;;;;;;18.87;13.20;;;7.70;99.90;;;;;;4946650;29;20686;-80
2023/12/14 10:15:46;;;;;;;20.17;13.40;;;7.90;99.90;;;;;;4947797;29;20205;-80
2023/12/14 10:18:13;;;;;;;17.37;12.10;;;8.50;99.90;;;;;;4946478;29;20226;-80
2023/12/14 10:20:40;;;;;;;18.50;12.77;;;9.60;99.90;;;;;;4944563;29;20202;-77
2023/12/14 10:23:09;;;;;;;15.40;10.63;;;9.40;99.90;;;;;;4953852;29;20200;-77
2023/12/14 10:25:37;;;;;;;13.90;10.03;;;9.60;99.90;;;;;;4956562;29;20233;-78
2023/12/14 10:28:03;;;;;;;15.20;10.30;;;9.20;99.90;;;;;;4956455;29;20256;-77
2023/12/14 10:30:31;;;;;;;13.60;11.23;;;8.90;99.90;;;;;;4956024;29;20204;-77
2023/12/14 10:32:58;;;;;;;11.47;9.43;;;8.80;99.90;;;;;;4948242;28;20347;-85
2023/12/14 10:35:24;;;;;;;16.53;10.40;;;8.40;99.90;;;;;;4936957;29;20291;-78
2023/12/14 10:37:53;;;;;;;15.00;10.10;;;8.20;99.90;;;;;;4936519;29;20206;-75
2023/12/14 10:40:23;;;;;;;19.53;10.63;;;8.10;99.90;;;;;;4936803;29;20292;-79
2023/12/14 10:42:51;;;;;;;13.80;10.90;;;8.00;99.90;;;;;;4936536;29;20241;-78
2023/12/14 10:45:19;;;;;;;16.07;11.37;;;8.00;99.90;;;;;;4936315;29;20898;-77
2023/12/14 10:47:47;;;;;;;16.33;11.23;;;8.10;99.90;;;;;;4936723;29;20209;-81
2023/12/14 10:50:15;;;;;;;15.90;11.23;;;8.10;99.90;;;;;;4936712;29;20549;-78
2023/12/14 10:52:42;;;;;;;16.67;11.47;;;8.10;99.90;;;;;;4936614;29;20204;-78
2023/12/14 10:55:12;;;;;;;18.83;10.77;;;8.30;99.90;;;;;;4936494;29;20258;-79
2023/12/14 10:57:40;;;;;;;15.93;11.50;;;8.70;99.90;;;;;;4936419;29;20202;-78
2023/12/14 11:00:09;;;;;;;13.57;10.40;;;8.50;99.90;;;;;;4936766;29;20292;-78
2023/12/14 11:02:42;;;;;;;14.63;9.67;;;9.50;99.90;;;;;;4936658;29;20202;-78
2023/12/14 11:05:11;;;;;;;13.03;9.47;;;10.00;99.90;;;;;;4936281;29;20232;-78
2023/12/14 11:07:45;;;;;;;13.93;10.13;;;9.60;99.90;;;;;;4936340;29;20689;-76
2023/12/14 11:10:12;;;;;;;14.30;10.17;;;9.40;99.90;;;;;;4936133;29;20600;-78
2023/12/14 11:12:52;;;;;;;15.40;10.80;;;10.20;99.90;;;;;;4936108;29;20308;-76
2023/12/14 11:15:19;;;;;;;13.57;9.30;;;10.50;99.90;;;;;;4936422;29;20296;-76
2023/12/14 11:18:21;;;;;;;22.03;15.20;;;9.80;99.90;;;;;;4936242;29;20237;-76
2023/12/14 11:20:52;;;;;;;15.57;10.33;;;9.00;99.90;;;;;;4936090;29;20828;-76
2023/12/14 11:23:29;;;;;;;15.47;10.60;;;8.60;99.90;;;;;;4936001;29;20562;-77
2023/12/14 11:25:58;;;;;;;14.13;10.73;;;8.60;99.90;;;;;;4936090;29;20236;-78
2023/12/14 11:28:26;;;;;;;24.87;17.10;;;8.40;99.90;;;;;;4936023;29;20205;-76
2023/12/14 11:30:53;;;;;;;16.47;12.63;;;8.30;99.90;;;;;;4935539;29;20265;-76
2023/12/14 11:33:20;;;;;;;16.17;11.90;;;8.10;99.90;;;;;;4935700;29;20201;-77
2023/12/14 11:35:46;;;;;;;15.57;10.97;;;8.00;99.90;;;;;;4935829;29;20737;-75
2023/12/14 11:38:13;;;;;;;13.53;10.37;;;8.00;99.90;;;;;;4935950;29;20602;-75
2023/12/14 11:40:40;;;;;;;15.03;11.53;;;7.90;99.90;;;;;;4935818;29;20206;-75
2023/12/14 11:43:08;;;;;;;18.30;11.17;;;7.90;99.90;;;;;;4935399;29;20245;-76
2023/12/14 11:45:37;;;;;;;15.07;10.27;;;7.80;99.90;;;;;;4935425;29;20708;-77
2023/12/14 11:48:05;;;;;;;14.47;10.43;;;7.70;99.90;;;;;;4935468;29;20258;-78
2023/12/14 11:50:33;;;;;;;18.17;11.30;;;7.70;99.90;;;;;;4935497;29;20559;-75
2023/12/14 11:53:00;;;;;;;16.00;10.70;;;7.80;99.90;;;;;;4935476;29;20256;-76
2023/12/14 11:55:27;;;;;;;14.73;11.13;;;7.70;99.90;;;;;;4935362;29;20679;-76
2023/12/14 11:57:54;;;;;;;17.90;12.23;;;7.60;99.90;;;;;;4935348;29;20261;-76
2023/12/14 12:00:25;;;;;;;19.87;14.03;;;7.70;99.90;;;;;;4935356;29;20839;-76
2023/12/14 12:02:53;;;;;;;16.20;10.80;;;7.50;99.90;;;;;;4935756;29;20649;-76
2023/12/14 12:05:19;;;;;;;15.37;10.83;;;7.50;99.90;;;;;;4935546;29;20233;-76
2023/12/14 12:07:46;;;;;;;15.80;10.47;;;7.50;99.90;;;;;;4935535;29;20198;-76
2023/12/14 12:10:13;;;;;;;17.43;11.63;;;7.50;99.90;;;;;;4935492;29;20205;-75
2023/12/14 12:12:39;;;;;;;19.30;11.33;;;7.60;99.90;;;;;;4935417;29;20204;-76
2023/12/14 12:15:06;;;;;;;21.33;10.70;;;7.60;99.90;;;;;;4935374;29;20210;-76
2023/12/14 12:17:37;;;;;;;14.57;11.30;;;7.60;99.90;;;;;;4936104;29;20267;-76
2023/12/14 12:20:06;;;;;;;17.20;11.17;;;7.60;99.90;;;;;;4935446;29;20209;-75
2023/12/14 12:22:32;;;;;;;18.60;11.33;;;7.60;99.90;;;;;;4935320;29;20201;-74
2023/12/14 12:25:00;;;;;;;13.63;10.70;;;7.60;99.90;;;;;;4935533;29;20717;-71
2023/12/14 12:27:27;;;;;;;22.77;12.30;;;7.50;99.90;;;;;;4935096;29;20201;-75
2023/12/14 12:29:54;;;;;;;17.40;11.37;;;7.50;99.90;;;;;;4935392;29;20255;-74
2023/12/14 12:32:21;;;;;;;14.57;11.27;;;7.40;99.90;;;;;;4935219;29;20205;-72
2023/12/14 12:34:48;;;;;;;18.33;11.93;;;7.30;99.90;;;;;;4935110;29;20733;-74
2023/12/14 12:37:16;;;;;;;17.87;11.57;;;7.30;99.90;;;;;;4935433;29;20292;-77
2023/12/14 12:39:42;;;;;;;15.70;11.27;;;7.30;99.90;;;;;;4935212;29;20210;-76
2023/12/14 12:42:09;;;;;;;17.67;11.57;;;7.30;99.90;;;;;;4934994;29;20233;-75
2023/12/14 12:44:36;;;;;;;18.37;11.77;;;7.20;99.90;;;;;;4938855;29;20212;-76
2023/12/14 12:47:03;;;;;;;17.90;11.67;;;7.20;99.90;;;;;;4938048;29;20220;-77
2023/12/14 12:49:30;;;;;;;17.30;12.37;;;7.20;99.90;;;;;;4955005;29;20213;-77
2023/12/14 12:51:57;;;;;;;21.10;15.20;;;7.20;99.90;;;;;;4957088;29;20198;-78
2023/12/14 12:54:24;;;;;;;24.00;15.63;;;7.10;99.90;;;;;;4956384;29;20229;-76
2023/12/14 12:56:51;;;;;;;36.97;21.30;;;7.10;99.90;;;;;;4956546;29;20205;-76
2023/12/14 12:59:17;;;;;;;36.83;22.73;;;7.10;99.90;;;;;;4956553;29;20205;-76
2023/12/14 13:01:45;;;;;;;23.53;15.80;;;7.10;99.90;;;;;;4956592;29;20217;-76
2023/12/14 13:04:19;;;;;;;19.73;13.07;;;7.10;99.90;;;;;;4956693;29;20288;-76
2023/12/14 13:06:47;;;;;;;19.40;12.77;;;7.10;99.90;;;;;;4955444;29;20596;-78
2023/12/14 13:09:14;;;;;;;20.93;12.93;;;7.10;99.90;;;;;;4972981;28;20197;-77
2023/12/14 13:11:42;;;;;;;18.63;12.30;;;7.10;99.90;;;;;;4975730;28;20252;-77
2023/12/14 13:14:08;;;;;;;17.07;12.37;;;7.00;99.90;;;;;;4975748;28;20284;-78